SHT21B EGJB-EGLL
Flight info
| Callsign | SHT21B |
|---|---|
| Flight time | N/A |
| Altitude | 19000 |
| Route | ORIST L982 ROXOG |
| Aircraft | A319/M-SDE3FGHIRWY/LB1 |
Departure
| Time | 2026-04-24 16:43 |
|---|---|
| Airport | Guernsey Airport (EGJB) |
Arrival
| Time | N/A |
|---|---|
| Airport | London Heathrow Airport (EGLL) |
| Time | Latitude | Longitude | Altitude | Speed | Heading |
|---|---|---|---|---|---|
| 2026-04-24 16:14 | 49.43260 | -2.59682 | 340 ft | 0 kts | 177° |
| 2026-04-24 16:35 | 49.43271 | -2.59683 | 351 ft | 2 kts | 176° |
| 2026-04-24 16:35 | 49.43288 | -2.59684 | 352 ft | 2 kts | 177° |
| 2026-04-24 16:35 | 49.43304 | -2.59686 | 340 ft | 2 kts | 176° |
| 2026-04-24 16:36 | 49.43320 | -2.59687 | 338 ft | 2 kts | 176° |
| 2026-04-24 16:36 | 49.43337 | -2.59688 | 340 ft | 2 kts | 178° |
| 2026-04-24 16:36 | 49.43354 | -2.59688 | 340 ft | 2 kts | 216° |
| 2026-04-24 16:36 | 49.43361 | -2.59667 | 336 ft | 2 kts | 266° |
| 2026-04-24 16:37 | 49.43362 | -2.59647 | 339 ft | 1 kts | 267° |
| 2026-04-24 16:38 | 49.43361 | -2.59669 | 337 ft | 4 kts | 267° |
| 2026-04-24 16:38 | 49.43357 | -2.59724 | 340 ft | 5 kts | 259° |
| 2026-04-24 16:38 | 49.43347 | -2.59795 | 338 ft | 8 kts | 266° |
| 2026-04-24 16:39 | 49.43344 | -2.59895 | 340 ft | 12 kts | 268° |
| 2026-04-24 16:39 | 49.43340 | -2.60043 | 340 ft | 16 kts | 268° |
| 2026-04-24 16:39 | 49.43334 | -2.60237 | 340 ft | 18 kts | 267° |
| 2026-04-24 16:39 | 49.43329 | -2.60443 | 340 ft | 20 kts | 268° |
| 2026-04-24 16:40 | 49.43330 | -2.60633 | 340 ft | 19 kts | 278° |
| 2026-04-24 16:40 | 49.43354 | -2.60833 | 337 ft | 18 kts | 281° |
| 2026-04-24 16:40 | 49.43364 | -2.61042 | 340 ft | 17 kts | 266° |
| 2026-04-24 16:40 | 49.43360 | -2.61232 | 340 ft | 15 kts | 275° |
| 2026-04-24 16:41 | 49.43413 | -2.61343 | 348 ft | 12 kts | 323° |
| 2026-04-24 16:41 | 49.43466 | -2.61343 | 346 ft | 2 kts | 85° |
| 2026-04-24 16:41 | 49.43466 | -2.61331 | 355 ft | 0 kts | 86° |
| 2026-04-24 16:42 | 49.43466 | -2.61330 | 355 ft | 1 kts | 86° |
| 2026-04-24 16:42 | 49.43472 | -2.61152 | 347 ft | 57 kts | 88° |
| 2026-04-24 16:42 | 49.43502 | -2.60080 | 359 ft | 138 kts | 85° |
| 2026-04-24 16:43 | 49.43555 | -2.58556 | 1037 ft | 143 kts | 86° |
| 2026-04-24 16:43 | 49.43593 | -2.57051 | 1940 ft | 141 kts | 89° |
| 2026-04-24 16:43 | 49.43633 | -2.55458 | 2428 ft | 160 kts | 91° |
| 2026-04-24 16:43 | 49.43675 | -2.53619 | 2850 ft | 185 kts | 91° |
| 2026-04-24 16:44 | 49.43726 | -2.51534 | 3485 ft | 202 kts | 90° |
| 2026-04-24 16:44 | 49.44217 | -2.49472 | 4300 ft | 218 kts | 53° |
| 2026-04-24 16:44 | 49.45555 | -2.48271 | 5271 ft | 231 kts | 21° |
| 2026-04-24 16:44 | 49.47109 | -2.47628 | 6331 ft | 232 kts | 18° |
| 2026-04-24 16:45 | 49.48693 | -2.47047 | 7168 ft | 243 kts | 19° |
| 2026-04-24 16:45 | 49.50232 | -2.45804 | 7667 ft | 262 kts | 41° |
| 2026-04-24 16:45 | 49.51697 | -2.44024 | 8469 ft | 273 kts | 42° |
| 2026-04-24 16:45 | 49.53196 | -2.42193 | 9453 ft | 278 kts | 41° |
| 2026-04-24 16:46 | 49.54724 | -2.40331 | 10391 ft | 284 kts | 41° |
| 2026-04-24 16:46 | 49.56342 | -2.38352 | 10807 ft | 308 kts | 41° |
| 2026-04-24 16:46 | 49.58069 | -2.36230 | 11331 ft | 324 kts | 41° |
| 2026-04-24 16:46 | 49.59850 | -2.34051 | 12117 ft | 330 kts | 41° |
| 2026-04-24 16:47 | 49.61659 | -2.31844 | 12962 ft | 334 kts | 41° |
| 2026-04-24 16:47 | 49.63492 | -2.29610 | 13803 ft | 338 kts | 41° |
| 2026-04-24 16:47 | 49.65347 | -2.27347 | 14561 ft | 341 kts | 40° |
| 2026-04-24 16:47 | 49.67222 | -2.25058 | 15307 ft | 345 kts | 40° |
| 2026-04-24 16:48 | 49.69109 | -2.22751 | 16045 ft | 348 kts | 40° |
| 2026-04-24 16:48 | 49.71011 | -2.20419 | 16804 ft | 351 kts | 39° |
| 2026-04-24 16:48 | 49.72936 | -2.18058 | 17560 ft | 355 kts | 39° |
| 2026-04-24 16:48 | 49.74875 | -2.15672 | 18303 ft | 358 kts | 39° |
| 2026-04-24 16:49 | 49.76807 | -2.13292 | 18909 ft | 361 kts | 38° |
| 2026-04-24 16:49 | 49.78800 | -2.10827 | 19126 ft | 362 kts | 38° |
| 2026-04-24 16:49 | 49.80745 | -2.08422 | 19192 ft | 365 kts | 38° |
| 2026-04-24 16:49 | 49.82780 | -2.05902 | 19204 ft | 386 kts | 38° |
| 2026-04-24 16:50 | 49.84223 | -2.04112 | 19203 ft | 399 kts | 38° |
| 2026-04-24 16:50 | 49.87170 | -2.00462 | 19206 ft | 417 kts | 38° |
| 2026-04-24 16:50 | 49.89454 | -1.97635 | 19209 ft | 421 kts | 38° |
| 2026-04-24 16:50 | 49.91746 | -1.94792 | 19210 ft | 423 kts | 38° |
| 2026-04-24 16:51 | 49.94038 | -1.91939 | 19217 ft | 423 kts | 39° |
| 2026-04-24 16:51 | 49.96328 | -1.89082 | 19223 ft | 423 kts | 39° |
| 2026-04-24 16:51 | 49.98616 | -1.86223 | 19226 ft | 422 kts | 39° |
| 2026-04-24 16:51 | 50.01053 | -1.83667 | 19228 ft | 423 kts | 28° |
| 2026-04-24 16:52 | 50.03681 | -1.81611 | 19225 ft | 423 kts | 27° |
| 2026-04-24 16:52 | 50.06325 | -1.79577 | 19228 ft | 424 kts | 27° |
| 2026-04-24 16:52 | 50.08969 | -1.77555 | 19232 ft | 424 kts | 27° |
| 2026-04-24 16:52 | 50.11618 | -1.75532 | 19233 ft | 424 kts | 27° |
| 2026-04-24 16:53 | 50.14260 | -1.73512 | 19233 ft | 424 kts | 27° |
| 2026-04-24 16:53 | 50.16909 | -1.71484 | 19230 ft | 423 kts | 27° |
| 2026-04-24 16:53 | 50.19553 | -1.69454 | 19230 ft | 423 kts | 27° |
| 2026-04-24 16:53 | 50.22195 | -1.67420 | 19230 ft | 423 kts | 27° |
| 2026-04-24 16:54 | 50.24832 | -1.65384 | 19230 ft | 423 kts | 27° |
| 2026-04-24 16:54 | 50.27472 | -1.63347 | 19233 ft | 424 kts | 27° |
| 2026-04-24 16:54 | 50.30117 | -1.61307 | 19232 ft | 424 kts | 27° |
| 2026-04-24 16:54 | 50.32763 | -1.59266 | 19231 ft | 424 kts | 27° |
| 2026-04-24 16:55 | 50.35402 | -1.57223 | 19228 ft | 424 kts | 27° |
| 2026-04-24 16:55 | 50.38043 | -1.55173 | 19227 ft | 424 kts | 28° |
| 2026-04-24 16:55 | 50.40683 | -1.53117 | 19225 ft | 424 kts | 28° |
| 2026-04-24 16:55 | 50.43323 | -1.51059 | 19228 ft | 424 kts | 28° |
| 2026-04-24 16:56 | 50.45964 | -1.48998 | 19227 ft | 424 kts | 28° |
| 2026-04-24 16:56 | 50.48612 | -1.46928 | 19232 ft | 425 kts | 28° |
| 2026-04-24 16:56 | 50.51258 | -1.44859 | 19231 ft | 425 kts | 28° |
| 2026-04-24 16:56 | 50.53901 | -1.42787 | 19234 ft | 425 kts | 28° |
| 2026-04-24 16:57 | 50.56491 | -1.40692 | 19239 ft | 407 kts | 30° |
| 2026-04-24 16:57 | 50.58917 | -1.38644 | 19244 ft | 385 kts | 31° |
| 2026-04-24 16:57 | 50.61209 | -1.36650 | 19244 ft | 372 kts | 31° |
| 2026-04-24 16:57 | 50.63457 | -1.34672 | 19246 ft | 369 kts | 31° |
| 2026-04-24 16:58 | 50.65692 | -1.32711 | 19244 ft | 368 kts | 31° |
| 2026-04-24 16:58 | 50.67937 | -1.30750 | 19251 ft | 368 kts | 31° |
| 2026-04-24 16:58 | 50.70179 | -1.28803 | 19246 ft | 368 kts | 31° |
| 2026-04-24 16:58 | 50.72424 | -1.26862 | 19245 ft | 368 kts | 31° |
| 2026-04-24 16:59 | 50.74645 | -1.24944 | 19027 ft | 359 kts | 31° |
| 2026-04-24 16:59 | 50.76809 | -1.23048 | 18786 ft | 354 kts | 32° |
| 2026-04-24 16:59 | 50.80919 | -1.18963 | 17993 ft | 344 kts | 36° |
| 2026-04-24 17:00 | 50.82899 | -1.16870 | 17514 ft | 339 kts | 36° |
| 2026-04-24 17:00 | 50.86771 | -1.12768 | 16584 ft | 331 kts | 36° |
| 2026-04-24 17:00 | 50.88681 | -1.10764 | 16136 ft | 328 kts | 36° |
| 2026-04-24 17:01 | 50.92391 | -1.06903 | 15236 ft | 322 kts | 36° |
| 2026-04-24 17:01 | 50.93637 | -1.05611 | 14744 ft | 326 kts | 36° |
| 2026-04-24 17:02 | 50.97413 | -1.01691 | 13727 ft | 321 kts | 36° |
| 2026-04-24 17:02 | 50.99852 | -0.99125 | 13120 ft | 314 kts | 39° |
| 2026-04-24 17:02 | 51.01452 | -0.96818 | 12720 ft | 310 kts | 50° |
| 2026-04-24 17:02 | 51.02416 | -0.95082 | 12503 ft | 312 kts | 51° |
| 2026-04-24 17:03 | 51.05305 | -0.89933 | 11781 ft | 311 kts | 50° |
| 2026-04-24 17:03 | 51.06743 | -0.87386 | 11429 ft | 309 kts | 50° |
| 2026-04-24 17:03 | 51.08179 | -0.84838 | 11072 ft | 308 kts | 50° |
| 2026-04-24 17:04 | 51.09581 | -0.82339 | 10716 ft | 308 kts | 50° |
| 2026-04-24 17:04 | 51.12392 | -0.77322 | 10212 ft | 293 kts | 51° |
| 2026-04-24 17:04 | 51.13720 | -0.74952 | 10074 ft | 282 kts | 51° |
| 2026-04-24 17:05 | 51.15012 | -0.72649 | 9845 ft | 276 kts | 51° |
| 2026-04-24 17:05 | 51.16282 | -0.70376 | 9720 ft | 274 kts | 51° |
| 2026-04-24 17:05 | 51.18813 | -0.65840 | 9144 ft | 272 kts | 51° |
| 2026-04-24 17:06 | 51.20067 | -0.63588 | 8812 ft | 271 kts | 51° |
| 2026-04-24 17:06 | 51.22167 | -0.59837 | 8278 ft | 270 kts | 50° |
| 2026-04-24 17:06 | 51.23414 | -0.57608 | 7931 ft | 269 kts | 51° |
| 2026-04-24 17:07 | 51.24642 | -0.55385 | 7604 ft | 267 kts | 51° |
| 2026-04-24 17:07 | 51.25870 | -0.53155 | 7286 ft | 266 kts | 51° |
| 2026-04-24 17:07 | 51.28699 | -0.49807 | 7031 ft | 257 kts | 12° |
| 2026-04-24 17:08 | 51.31827 | -0.51864 | 7005 ft | 258 kts | 306° |
| 2026-04-24 17:08 | 51.32456 | -0.54541 | 7006 ft | 261 kts | 279° |
| 2026-04-24 17:08 | 51.32862 | -0.57370 | 6985 ft | 261 kts | 287° |
| 2026-04-24 17:09 | 51.34055 | -0.62854 | 6987 ft | 261 kts | 291° |
| 2026-04-24 17:09 | 51.35278 | -0.68332 | 6671 ft | 263 kts | 289° |
| 2026-04-24 17:10 | 51.35852 | -0.71114 | 6371 ft | 263 kts | 288° |
| 2026-04-24 17:10 | 51.38490 | -0.78317 | 5325 ft | 257 kts | 341° |
| 2026-04-24 17:11 | 51.43713 | -0.78901 | 4116 ft | 244 kts | 2° |
| 2026-04-24 17:12 | 51.47598 | -0.73000 | 3013 ft | 174 kts | 88° |